McAlester, OK (74502)

4:18 AM CDT on October 23, 2014 (GMT -0500)
Kinkead Hills | Change Station
CLOSE
Current Station
Personal Weather Station
Location: McAlester, OK
Elevation: 808 ft
Nearby Weather Stations

Elev 808 ft 34.90 °N, 95.73 °W | Updated 3 minutes ago

Overcast
Overcast
59.0 °F
Feels Like 59.0 °F
N
0.0
Wind Variable Wind from SE

Today
High -- | Low -- °F
--% Chance of Precip.
Yesterday
High -- | Low -- °F
Precip. -- in
7:35 AM 6:38 PM
Waning Crescent, 0% visible
Pressure 30.12 in
Visibility 10.0 miles
Clouds Mostly Cloudy 10000 ft
Overcast 12000 ft
Dew Point 55 °F
Humidity 86%
Rainfall 0.00 in
Snow Depth Not available.
UV 0 out of 12
Pollen 3.80 out of 12
Air Quality Not available.
Flu Activity No Activity
METAR KMLC 230853Z AUTO 00000KT 10SM BKN100 OVC120 16/12 A3014 RMK AO2 RAB0754E26 SLP198 P0000 60000 T01610122 51003

More Conditions Fewer Conditions

Pressure 30.12 in
Visibility 10.0 miles
Clouds Mostly Cloudy 10000 ft
Overcast 12000 ft
Dew Point 55 °F
Humidity 86%
Rainfall 0.00 in
Snow Depth Not available.
UV 0 out of 12
Pollen 3.80 out of 12
Air Quality Not available.
Flu Activity No Activity
METAR KMLC 230853Z AUTO 00000KT 10SM BKN100 OVC120 16/12 A3014 RMK AO2 RAB0754E26 SLP198 P0000 60000 T01610122 51003

More Conditions Fewer Conditions

Nowcast | as of 3:05 am CDT on October 23, 2014

At 3:05 am...National Weather Service Doppler radar indicated scattered areas of light rain across parts of eastern Oklahoma. The rain was moving northeast at 25 miles an hour. Through 5 am...scattered areas of light rain will continue to move across parts of eastern Oklahoma. Rainfall amounts will generally be less than a tenth of an inch.

×

10-Day Weather Forecast

Almanac

Astronomy

Oct. 23, 2014 Rise Set
Actual Time 7:35 AM CDT 6:38 PM CDT
Civil Twilight 7:10 AM CDT 7:04 PM CDT
Nautical Twilight 6:40 AM CDT 7:33 PM CDT
Astronomical Twilight 6:11 AM CDT 8:03 PM CDT
Moon 7:17 AM CDT 6:40 PM CDT
Length of Visible Light 11h 54m
Length of Day
11h 02m
Tomorrow will be 2m 2s shorter.
Waning Crescent, 0% of the Moon is Illuminated
Today
Waning Crescent
Oct 23
New
Oct 30
First Quarter
Nov 6
Full
Nov 14
Last Quarter

Today's Extremes

State Highs State Lows

Community

WunderPhotos

Upload Photos

1,764,199 photos uploaded!

Nearby

Snow Depth

Station Depth Elevation
No new snow has been reported.

Earthquake Activity

City Distance Mag. Time & Date
Medford, Oklahoma 161 miles 3.0 2:06 AM CDT
2014-10-23
Pawnee, Oklahoma 125 miles 2.7 1:06 AM CDT
2014-10-23
Luther, Oklahoma 93 miles 2.5 10:36 PM CDT
2014-10-22
Crescent, Oklahoma 134 miles 2.7 9:58 PM CDT
2014-10-22
Minimum magnitude displayed is 2.5.

Coastal Water Temperatures

Place Temperature
No Stations Reporting

Nearby Weather Stations